Terminal Aerodrome Forecast
Issued by NWS Goodland, KS

Home | Current Version | Previous Version | Text Only | Print | Product List | Glossary On
Versions: 1 2 3 4 5 6 7 8 9 10 11 12 13 14 15 16 17
000
FTUS43 KGLD 171400 AAA
TAFGLD
TAF AMD
KGLD 171443Z 1715/1812 13008KT 6SM BR OVC005
     FM171700 16010KT P6SM SCT007 BKN015
     FM172000 18012G20KT P6SM FEW020 SCT200
     FM180100 17013KT P6SM FEW100
     FM180600 18015G23KT P6SM SCT200=

USA.gov is the U.S. government's official web portal to all federal, state and local government web resources and services.